Time;durP1;ratioP1;P1;durP2;ratioP2;P2;SDS_P1;SDS_P2;PMS_P1;PMS_P2;Temp;Humidity;BMP_temperature;BMP_pressure;BME280_temperature;BME280_humidity;BME280_pressure;Samples;Min_cycle;Max_cycle;Signal;HPM_P1;HPM_P2
2023/07/22 00:00:30;;;;;;;13.07;6.97;;;;;;;;;;5082299;28;20052;-63
2023/07/22 00:02:57;;;;;;;10.98;6.18;;;;;;;;;;5092021;27;20534;-64
2023/07/22 00:05:25;;;;;;;10.50;6.97;;;;;;;;;;5103898;27;20521;-64
2023/07/22 00:07:52;;;;;;;13.18;7.07;;;;;;;;;;5104974;27;20054;-62
2023/07/22 00:10:19;;;;;;;12.75;7.95;;;;;;;;;;5106305;28;20103;-59
2023/07/22 00:12:45;;;;;;;13.13;7.55;;;;;;;;;;5103324;27;20118;-63
2023/07/22 00:15:12;;;;;;;14.25;8.32;;;;;;;;;;5105117;28;20094;-64
2023/07/22 00:17:40;;;;;;;13.85;7.80;;;;;;;;;;5099442;27;20056;-64
2023/07/22 00:20:09;;;;;;;14.45;8.23;;;;;;;;;;5109239;27;20087;-64
2023/07/22 00:22:36;;;;;;;14.68;8.55;;;;;;;;;;5104775;27;20052;-62
2023/07/22 00:25:03;;;;;;;13.25;7.90;;;;;;;;;;5106705;27;20040;-65
2023/07/22 00:27:29;;;;;;;14.88;7.90;;;;;;;;;;5105341;27;20139;-64
2023/07/22 00:29:55;;;;;;;15.20;8.07;;;;;;;;;;5095737;27;20049;-63
2023/07/22 00:32:22;;;;;;;14.25;8.43;;;;;;;;;;5100291;27;20502;-61
2023/07/22 00:34:48;;;;;;;15.02;8.07;;;;;;;;;;5103925;27;20055;-63
2023/07/22 00:37:16;;;;;;;12.50;7.18;;;;;;;;;;5090994;27;20049;-65
2023/07/22 00:39:43;;;;;;;12.52;7.93;;;;;;;;;;5092336;27;20302;-65
2023/07/22 00:42:09;;;;;;;15.55;8.32;;;;;;;;;;5095290;28;20389;-64
2023/07/22 00:44:36;;;;;;;17.77;8.20;;;;;;;;;;5105411;28;20097;-64
2023/07/22 00:47:03;;;;;;;16.92;8.45;;;;;;;;;;5104670;27;20524;-62
2023/07/22 00:49:30;;;;;;;15.52;8.40;;;;;;;;;;5085221;27;20145;-64
2023/07/22 00:52:00;;;;;;;16.10;8.32;;;;;;;;;;5100097;27;20251;-64
2023/07/22 00:54:27;;;;;;;15.48;9.20;;;;;;;;;;5097678;27;20061;-63
2023/07/22 00:56:53;;;;;;;15.48;8.85;;;;;;;;;;5087286;27;20465;-62
2023/07/22 00:59:20;;;;;;;17.00;9.52;;;;;;;;;;5103940;27;20493;-64
2023/07/22 01:01:47;;;;;;;17.35;9.30;;;;;;;;;;5088323;28;20056;-59
2023/07/22 01:04:14;;;;;;;15.90;8.77;;;;;;;;;;5102727;27;20055;-58
2023/07/22 01:06:42;;;;;;;13.82;8.63;;;;;;;;;;5118677;27;20400;-64
2023/07/22 01:09:09;;;;;;;17.55;9.20;;;;;;;;;;5085897;27;20087;-60
2023/07/22 01:11:35;;;;;;;15.75;9.45;;;;;;;;;;5085196;28;20562;-64
2023/07/22 01:14:03;;;;;;;15.07;9.02;;;;;;;;;;5083972;28;20513;-62
2023/07/22 01:16:30;;;;;;;17.10;9.68;;;;;;;;;;5096746;27;20105;-63
2023/07/22 01:18:57;;;;;;;23.35;9.90;;;;;;;;;;5095582;27;20053;-63
2023/07/22 01:21:24;;;;;;;13.77;8.18;;;;;;;;;;5098827;27;20502;-63
2023/07/22 01:23:51;;;;;;;16.27;9.98;;;;;;;;;;5086972;27;20052;-64
2023/07/22 01:26:17;;;;;;;20.67;9.48;;;;;;;;;;5084009;28;20048;-62
2023/07/22 01:28:44;;;;;;;17.45;9.10;;;;;;;;;;5084599;27;20084;-65
2023/07/22 01:31:10;;;;;;;18.30;9.18;;;;;;;;;;5095271;27;20091;-59
2023/07/22 01:33:38;;;;;;;14.88;8.48;;;;;;;;;;5125105;27;20061;-62
2023/07/22 01:36:04;;;;;;;19.40;8.60;;;;;;;;;;5118977;27;20059;-65
2023/07/22 01:38:31;;;;;;;15.38;9.38;;;;;;;;;;5108488;27;20088;-64
2023/07/22 01:40:57;;;;;;;17.25;9.40;;;;;;;;;;5115594;27;20132;-64
2023/07/22 01:43:24;;;;;;;13.30;9.40;;;;;;;;;;5125268;27;20051;-63
2023/07/22 01:45:51;;;;;;;16.30;10.23;;;;;;;;;;5124700;27;20136;-64
2023/07/22 01:48:17;;;;;;;13.32;8.52;;;;;;;;;;5121582;27;20063;-65
2023/07/22 01:50:43;;;;;;;15.95;9.10;;;;;;;;;;5102063;27;20056;-60
2023/07/22 01:53:10;;;;;;;15.35;8.85;;;;;;;;;;5100635;27;20448;-64
2023/07/22 01:55:36;;;;;;;14.35;8.65;;;;;;;;;;5109344;27;20053;-64
2023/07/22 01:58:03;;;;;;;15.15;8.38;;;;;;;;;;5088938;27;20057;-62
2023/07/22 02:00:29;;;;;;;15.27;8.65;;;;;;;;;;5092697;27;20138;-63
2023/07/22 02:02:56;;;;;;;13.48;8.23;;;;;;;;;;5086023;27;20088;-65
2023/07/22 02:05:23;;;;;;;11.38;7.38;;;;;;;;;;5083608;28;20223;-64
2023/07/22 02:07:50;;;;;;;11.70;7.43;;;;;;;;;;5089726;28;20522;-60
2023/07/22 02:10:17;;;;;;;13.23;7.75;;;;;;;;;;5087369;27;20080;-63
2023/07/22 02:12:43;;;;;;;13.68;8.07;;;;;;;;;;5104065;27;20133;-63
2023/07/22 02:15:10;;;;;;;13.63;7.93;;;;;;;;;;5104848;27;20136;-64
2023/07/22 02:17:36;;;;;;;14.23;8.40;;;;;;;;;;5103326;28;20592;-63
2023/07/22 02:20:04;;;;;;;13.55;7.97;;;;;;;;;;5101342;27;20601;-60
2023/07/22 02:22:31;;;;;;;12.93;8.35;;;;;;;;;;5102891;27;20144;-62
2023/07/22 02:24:57;;;;;;;15.45;8.75;;;;;;;;;;5096879;27;20491;-59
2023/07/22 02:27:24;;;;;;;17.10;8.88;;;;;;;;;;5083146;28;20048;-64
2023/07/22 02:29:51;;;;;;;17.15;9.93;;;;;;;;;;5092513;27;20086;-64
2023/07/22 02:32:18;;;;;;;16.83;9.00;;;;;;;;;;5096345;28;20062;-64
2023/07/22 02:34:44;;;;;;;14.98;8.75;;;;;;;;;;5103615;27;20066;-61
2023/07/22 02:37:11;;;;;;;15.27;9.32;;;;;;;;;;5102078;27;20114;-65
2023/07/22 02:39:37;;;;;;;19.40;9.90;;;;;;;;;;5105931;27;20573;-65
2023/07/22 02:42:04;;;;;;;15.63;10.15;;;;;;;;;;5084002;27;20404;-61
2023/07/22 02:44:30;;;;;;;14.40;9.57;;;;;;;;;;5102366;28;20056;-62
2023/07/22 02:46:57;;;;;;;20.92;10.63;;;;;;;;;;5101687;28;20110;-64
2023/07/22 02:49:23;;;;;;;17.60;9.90;;;;;;;;;;5101437;27;20135;-63
2023/07/22 02:51:50;;;;;;;16.80;9.75;;;;;;;;;;5088290;28;20055;-63
2023/07/22 02:54:16;;;;;;;18.70;10.57;;;;;;;;;;5092390;27;20092;-65
2023/07/22 02:56:43;;;;;;;16.90;10.82;;;;;;;;;;5083560;28;20044;-64
2023/07/22 02:59:09;;;;;;;19.73;10.82;;;;;;;;;;5088408;27;20059;-61
2023/07/22 03:01:36;;;;;;;15.55;10.43;;;;;;;;;;5102276;28;20048;-62
2023/07/22 03:04:04;;;;;;;17.38;10.65;;;;;;;;;;5109090;27;20494;-63
2023/07/22 03:06:31;;;;;;;19.80;10.25;;;;;;;;;;5103499;28;20052;-64
2023/07/22 03:08:57;;;;;;;20.23;10.20;;;;;;;;;;5100923;27;20064;-65
2023/07/22 03:11:25;;;;;;;16.80;10.10;;;;;;;;;;5096256;27;20105;-64
2023/07/22 03:13:51;;;;;;;17.23;10.20;;;;;;;;;;5085687;27;20440;-65
2023/07/22 03:16:18;;;;;;;16.38;9.98;;;;;;;;;;5095728;28;20143;-63
2023/07/22 03:18:44;;;;;;;16.42;10.18;;;;;;;;;;5089456;27;20052;-62
2023/07/22 03:21:11;;;;;;;20.23;10.55;;;;;;;;;;5101789;28;20470;-64
2023/07/22 03:23:37;;;;;;;21.00;9.45;;;;;;;;;;5101388;27;20071;-59
2023/07/22 03:26:05;;;;;;;14.27;8.98;;;;;;;;;;5111581;27;20139;-59
2023/07/22 03:28:31;;;;;;;17.17;9.50;;;;;;;;;;5120946;27;20145;-63
2023/07/22 03:30:58;;;;;;;14.60;9.43;;;;;;;;;;5081905;27;20139;-64
2023/07/22 03:33:24;;;;;;;15.65;9.77;;;;;;;;;;5086163;27;20433;-63
2023/07/22 03:35:50;;;;;;;16.63;9.63;;;;;;;;;;5095379;27;20670;-60
2023/07/22 03:38:17;;;;;;;13.95;9.00;;;;;;;;;;5124059;27;20059;-64
2023/07/22 03:40:43;;;;;;;17.30;8.75;;;;;;;;;;5106019;27;20056;-64
2023/07/22 03:43:10;;;;;;;15.30;8.77;;;;;;;;;;5097005;28;20056;-64
2023/07/22 03:45:36;;;;;;;15.40;8.57;;;;;;;;;;5104860;28;20524;-65
2023/07/22 03:48:03;;;;;;;18.95;9.13;;;;;;;;;;5106274;27;20547;-60
2023/07/22 03:50:29;;;;;;;17.85;8.60;;;;;;;;;;5098694;27;21002;-61
2023/07/22 03:52:56;;;;;;;13.52;8.43;;;;;;;;;;5088834;27;20056;-64
2023/07/22 03:55:22;;;;;;;15.65;8.40;;;;;;;;;;5090379;27;20056;-63
2023/07/22 03:57:49;;;;;;;14.48;8.23;;;;;;;;;;5089165;28;20088;-61
2023/07/22 04:00:15;;;;;;;18.15;9.05;;;;;;;;;;5092676;27;20055;-58
2023/07/22 04:02:42;;;;;;;12.80;7.50;;;;;;;;;;5097123;27;20056;-63
2023/07/22 04:05:09;;;;;;;12.85;8.38;;;;;;;;;;5106688;27;20056;-62
2023/07/22 04:07:35;;;;;;;14.65;8.73;;;;;;;;;;5093256;27;20052;-61
2023/07/22 04:10:02;;;;;;;13.25;8.13;;;;;;;;;;5093802;27;20129;-64
2023/07/22 04:12:29;;;;;;;15.55;8.95;;;;;;;;;;5096835;28;20067;-64
2023/07/22 04:14:56;;;;;;;15.38;7.45;;;;;;;;;;5088123;28;20113;-62
2023/07/22 04:17:22;;;;;;;11.15;6.47;;;;;;;;;;5089622;28;20129;-64
2023/07/22 04:19:51;;;;;;;10.40;6.30;;;;;;;;;;5090918;27;20084;-64
2023/07/22 04:22:17;;;;;;;12.35;6.18;;;;;;;;;;5103042;27;20241;-64
2023/07/22 04:24:44;;;;;;;11.48;6.63;;;;;;;;;;5105055;27;20056;-61
2023/07/22 04:27:10;;;;;;;7.70;5.50;;;;;;;;;;5090106;28;20519;-65
2023/07/22 04:29:37;;;;;;;10.43;6.20;;;;;;;;;;5104295;28;20068;-65
2023/07/22 04:32:03;;;;;;;13.10;7.13;;;;;;;;;;5101071;27;20060;-60
2023/07/22 04:34:30;;;;;;;10.25;6.03;;;;;;;;;;5103113;27;20059;-64
2023/07/22 04:36:57;;;;;;;12.65;7.30;;;;;;;;;;5094065;27;20114;-65
2023/07/22 04:39:23;;;;;;;13.93;7.03;;;;;;;;;;5104310;28;20151;-64
2023/07/22 04:41:50;;;;;;;14.82;7.85;;;;;;;;;;5087136;28;20392;-61
2023/07/22 04:44:17;;;;;;;18.73;8.35;;;;;;;;;;5085838;27;20404;-64
2023/07/22 04:46:43;;;;;;;17.92;8.65;;;;;;;;;;5099721;27;20151;-64
2023/07/22 04:49:10;;;;;;;13.95;7.82;;;;;;;;;;5103341;27;20055;-63
2023/07/22 04:51:37;;;;;;;15.82;9.30;;;;;;;;;;5120614;27;20589;-63
2023/07/22 04:54:03;;;;;;;20.27;9.93;;;;;;;;;;5115077;27;20044;-60
2023/07/22 04:56:30;;;;;;;18.52;9.65;;;;;;;;;;5104282;28;20059;-64
2023/07/22 04:58:56;;;;;;;16.95;9.40;;;;;;;;;;5104987;27;20059;-64
2023/07/22 05:01:23;;;;;;;16.27;9.27;;;;;;;;;;5092237;27;20129;-60
2023/07/22 05:03:49;;;;;;;18.27;9.02;;;;;;;;;;5106911;27;20560;-64
2023/07/22 05:06:16;;;;;;;20.17;9.57;;;;;;;;;;5108196;27;20062;-64
2023/07/22 05:08:42;;;;;;;21.58;11.00;;;;;;;;;;5085938;27;20103;-62
2023/07/22 05:11:09;;;;;;;19.90;10.27;;;;;;;;;;5084527;27;20502;-62
2023/07/22 05:13:35;;;;;;;19.35;10.15;;;;;;;;;;5099189;27;20048;-65
2023/07/22 05:16:02;;;;;;;18.25;9.20;;;;;;;;;;5083950;28;20063;-63
2023/07/22 05:18:28;;;;;;;19.45;9.75;;;;;;;;;;5088049;27;20063;-63
2023/07/22 05:20:54;;;;;;;16.42;9.15;;;;;;;;;;5083793;28;20069;-64
2023/07/22 05:23:21;;;;;;;19.95;9.32;;;;;;;;;;5094490;27;20051;-64
2023/07/22 05:25:52;;;;;;;20.90;10.27;;;;;;;;;;5093675;28;20093;-62
2023/07/22 05:28:18;;;;;;;20.73;11.25;;;;;;;;;;5086677;27;20052;-61
2023/07/22 05:30:47;;;;;;;23.95;10.27;;;;;;;;;;5096157;27;20060;-64
2023/07/22 05:33:13;;;;;;;20.20;10.18;;;;;;;;;;5090272;27;20075;-61
2023/07/22 05:35:39;;;;;;;18.02;10.80;;;;;;;;;;5093941;27;20052;-63
2023/07/22 05:38:06;;;;;;;22.48;11.25;;;;;;;;;;5066909;28;20052;-64
2023/07/22 05:40:32;;;;;;;20.63;11.10;;;;;;;;;;5083868;28;20048;-62
2023/07/22 05:43:00;;;;;;;19.58;10.52;;;;;;;;;;5086884;27;20139;-63
2023/07/22 05:45:26;;;;;;;19.20;10.70;;;;;;;;;;5089325;27;20055;-65
2023/07/22 05:47:52;;;;;;;21.42;11.32;;;;;;;;;;5097977;28;20605;-65
2023/07/22 05:50:19;;;;;;;19.85;11.27;;;;;;;;;;5100484;27;20083;-63
2023/07/22 05:52:45;;;;;;;20.52;11.98;;;;;;;;;;5085345;27;20600;-63
2023/07/22 05:55:12;;;;;;;22.15;11.00;;;;;;;;;;5087930;28;20056;-64
2023/07/22 05:57:38;;;;;;;21.05;11.10;;;;;;;;;;5088663;27;20055;-64
2023/07/22 06:00:05;;;;;;;20.63;11.82;;;;;;;;;;5090769;27;20522;-61
2023/07/22 06:02:34;;;;;;;24.60;12.48;;;;;;;;;;5089696;27;20529;-63
2023/07/22 06:05:01;;;;;;;25.67;11.25;;;;;;;;;;5095847;28;20044;-64
2023/07/22 06:07:28;;;;;;;22.70;11.32;;;;;;;;;;5103187;27;20563;-64
2023/07/22 06:09:55;;;;;;;18.83;11.45;;;;;;;;;;5094807;27;20441;-62
2023/07/22 06:12:21;;;;;;;23.52;13.02;;;;;;;;;;5083125;28;20048;-64
2023/07/22 06:14:47;;;;;;;20.73;10.82;;;;;;;;;;5084347;27;20586;-62
2023/07/22 06:17:14;;;;;;;24.70;11.57;;;;;;;;;;5088961;27;20502;-63
2023/07/22 06:19:41;;;;;;;21.15;11.05;;;;;;;;;;5092314;27;20048;-62
2023/07/22 06:22:07;;;;;;;21.30;11.77;;;;;;;;;;5098287;27;20133;-64
2023/07/22 06:24:33;;;;;;;27.73;11.30;;;;;;;;;;5083516;28;20055;-59
2023/07/22 06:27:00;;;;;;;20.85;11.50;;;;;;;;;;5084322;28;20598;-63
2023/07/22 06:29:27;;;;;;;19.88;11.48;;;;;;;;;;5088081;27;20093;-65
2023/07/22 06:31:53;;;;;;;22.42;12.05;;;;;;;;;;5097751;27;20056;-63
2023/07/22 06:34:20;;;;;;;25.42;12.23;;;;;;;;;;5082939;28;20056;-63
2023/07/22 06:36:47;;;;;;;29.27;12.27;;;;;;;;;;5093895;27;20498;-64
2023/07/22 06:39:13;;;;;;;20.00;11.30;;;;;;;;;;5101505;27;20051;-65
2023/07/22 06:41:40;;;;;;;23.90;11.48;;;;;;;;;;5094156;27;20372;-64
2023/07/22 06:44:06;;;;;;;24.00;11.18;;;;;;;;;;5095258;27;20048;-61
2023/07/22 06:46:33;;;;;;;22.58;12.05;;;;;;;;;;5093508;28;20526;-62
2023/07/22 06:48:59;;;;;;;18.38;11.38;;;;;;;;;;5084251;28;20052;-63
2023/07/22 06:51:26;;;;;;;21.10;11.73;;;;;;;;;;5082428;27;20056;-61
2023/07/22 06:53:52;;;;;;;19.95;11.15;;;;;;;;;;5083836;27;20074;-63
2023/07/22 06:56:19;;;;;;;19.38;10.88;;;;;;;;;;5088227;27;20598;-64
2023/07/22 06:58:45;;;;;;;20.17;10.43;;;;;;;;;;5092098;27;20134;-63
2023/07/22 07:01:12;;;;;;;19.95;11.23;;;;;;;;;;5090618;27;20495;-63
2023/07/22 07:03:38;;;;;;;23.77;9.88;;;;;;;;;;5093873;27;20110;-65
2023/07/22 07:06:06;;;;;;;20.20;11.40;;;;;;;;;;5101428;27;20055;-65
2023/07/22 07:08:32;;;;;;;18.98;11.20;;;;;;;;;;5098860;27;20109;-64
2023/07/22 07:11:00;;;;;;;26.63;10.85;;;;;;;;;;5091186;27;20058;-64
2023/07/22 07:13:26;;;;;;;24.90;11.50;;;;;;;;;;5092309;28;20139;-61
2023/07/22 07:15:54;;;;;;;21.23;10.95;;;;;;;;;;5097807;27;20210;-63
2023/07/22 07:18:20;;;;;;;17.33;10.07;;;;;;;;;;5089520;27;20482;-63
2023/07/22 07:20:47;;;;;;;16.77;10.13;;;;;;;;;;5092238;27;20567;-64
2023/07/22 07:23:15;;;;;;;23.83;11.13;;;;;;;;;;5084397;27;20048;-64
2023/07/22 07:25:42;;;;;;;17.52;10.60;;;;;;;;;;5100445;27;20080;-65
2023/07/22 07:28:09;;;;;;;20.73;10.13;;;;;;;;;;5083942;27;20115;-58
2023/07/22 07:30:35;;;;;;;18.13;9.25;;;;;;;;;;5110029;27;20059;-65
2023/07/22 07:33:02;;;;;;;19.48;10.25;;;;;;;;;;5108733;27;20842;-64
2023/07/22 07:35:28;;;;;;;21.13;11.00;;;;;;;;;;5098948;27;20203;-65
2023/07/22 07:37:55;;;;;;;21.52;11.30;;;;;;;;;;5101134;27;20422;-65
2023/07/22 07:40:21;;;;;;;20.30;10.93;;;;;;;;;;5102962;28;20105;-61
2023/07/22 07:42:48;;;;;;;22.83;11.02;;;;;;;;;;5101614;27;20518;-64
2023/07/22 07:45:15;;;;;;;19.48;11.50;;;;;;;;;;5110822;27;20133;-65
2023/07/22 07:47:41;;;;;;;22.08;11.65;;;;;;;;;;5114293;27;20060;-65
2023/07/22 07:50:08;;;;;;;16.48;9.48;;;;;;;;;;5115840;27;20051;-60
2023/07/22 07:52:34;;;;;;;16.88;10.15;;;;;;;;;;5099730;27;20158;-64
2023/07/22 07:55:01;;;;;;;21.48;10.80;;;;;;;;;;5104987;27;20174;-63
2023/07/22 07:57:27;;;;;;;15.55;9.60;;;;;;;;;;5107889;27;20141;-63
2023/07/22 07:59:53;;;;;;;20.15;9.95;;;;;;;;;;5090092;27;20474;-66
2023/07/22 08:02:20;;;;;;;18.90;10.57;;;;;;;;;;5094017;27;20510;-64
2023/07/22 08:04:47;;;;;;;19.77;9.40;;;;;;;;;;5090455;27;20614;-65
2023/07/22 08:07:15;;;;;;;18.52;9.27;;;;;;;;;;5094597;27;20494;-64
2023/07/22 08:09:41;;;;;;;15.05;8.63;;;;;;;;;;5094756;27;20147;-65
2023/07/22 08:12:08;;;;;;;16.98;8.27;;;;;;;;;;5096816;27;20049;-62
2023/07/22 08:14:35;;;;;;;14.23;8.35;;;;;;;;;;5099698;27;20086;-64
2023/07/22 08:17:02;;;;;;;20.02;9.80;;;;;;;;;;5102740;28;20066;-64
2023/07/22 08:19:28;;;;;;;18.77;8.93;;;;;;;;;;5102339;27;20044;-64
2023/07/22 08:21:55;;;;;;;16.45;9.10;;;;;;;;;;5101985;27;20513;-64
2023/07/22 08:24:21;;;;;;;18.35;8.82;;;;;;;;;;5100900;27;20118;-64
2023/07/22 08:26:48;;;;;;;21.17;10.57;;;;;;;;;;5096500;27;20519;-64
2023/07/22 08:29:14;;;;;;;16.67;8.00;;;;;;;;;;5084623;28;20058;-64
2023/07/22 08:31:41;;;;;;;14.10;7.95;;;;;;;;;;5085463;27;20130;-66
2023/07/22 08:34:07;;;;;;;14.27;7.85;;;;;;;;;;5095920;27;20546;-64
2023/07/22 08:36:33;;;;;;;15.40;8.30;;;;;;;;;;5102939;27;20083;-60
2023/07/22 08:39:00;;;;;;;15.07;8.32;;;;;;;;;;5104707;28;20377;-65
2023/07/22 08:41:27;;;;;;;14.10;8.23;;;;;;;;;;5104175;27;20544;-65
2023/07/22 08:43:54;;;;;;;12.80;7.07;;;;;;;;;;5105037;27;20480;-62
2023/07/22 08:46:22;;;;;;;12.93;7.22;;;;;;;;;;5101745;27;20056;-66
2023/07/22 08:48:49;;;;;;;12.88;7.53;;;;;;;;;;5106934;27;20051;-65
2023/07/22 08:51:16;;;;;;;12.55;7.88;;;;;;;;;;5126127;27;20166;-65
2023/07/22 08:53:43;;;;;;;11.63;7.10;;;;;;;;;;5126078;27;20463;-64
2023/07/22 08:56:18;;;;;;;;;;;;;;;;;;5126930;27;20058;-60
2023/07/22 08:58:45;;;;;;;12.55;6.65;;;;;;;;;;5124994;27;46982;-65
2023/07/22 09:01:11;;;;;;;13.93;6.75;;;;;;;;;;5094530;27;20117;-65
2023/07/22 09:03:39;;;;;;;11.05;6.07;;;;;;;;;;5085338;28;20065;-64
2023/07/22 09:06:06;;;;;;;9.02;5.47;;;;;;;;;;5084827;28;20676;-63
2023/07/22 09:08:33;;;;;;;10.07;5.15;;;;;;;;;;5111312;27;20136;-65
2023/07/22 09:10:59;;;;;;;13.57;5.82;;;;;;;;;;5124965;27;20162;-64
2023/07/22 09:13:26;;;;;;;8.68;4.80;;;;;;;;;;5125968;27;20056;-64
2023/07/22 09:15:53;;;;;;;8.63;4.80;;;;;;;;;;5125568;27;20058;-67
2023/07/22 09:18:19;;;;;;;8.98;4.57;;;;;;;;;;5124362;27;20074;-66
2023/07/22 09:20:46;;;;;;;6.93;4.13;;;;;;;;;;5123127;27;20134;-64
2023/07/22 09:23:13;;;;;;;9.15;4.85;;;;;;;;;;5125286;27;20454;-64
2023/07/22 09:25:41;;;;;;;8.52;4.70;;;;;;;;;;5126032;27;20120;-67
2023/07/22 09:28:08;;;;;;;11.02;4.78;;;;;;;;;;5111169;27;20056;-65
2023/07/22 09:30:36;;;;;;;10.45;4.53;;;;;;;;;;5104452;27;20588;-66
2023/07/22 09:33:03;;;;;;;9.00;4.68;;;;;;;;;;5103569;27;20584;-66
2023/07/22 09:35:31;;;;;;;11.95;5.32;;;;;;;;;;5114992;27;20058;-64
2023/07/22 09:37:58;;;;;;;9.52;4.65;;;;;;;;;;5125449;27;20047;-61
2023/07/22 09:40:26;;;;;;;6.38;4.25;;;;;;;;;;5111330;27;20055;-63
2023/07/22 09:42:56;;;;;;;7.60;4.00;;;;;;;;;;5104836;27;20056;-64
2023/07/22 09:45:24;;;;;;;5.68;4.70;;;;;;;;;;5113880;27;20142;-64
2023/07/22 09:47:51;;;;;;;5.32;3.92;;;;;;;;;;5113486;27;20083;-63
2023/07/22 09:50:18;;;;;;;9.88;4.05;;;;;;;;;;5104710;27;20056;-63
2023/07/22 09:52:48;;;;;;;6.97;4.38;;;;;;;;;;5105005;27;20051;-61
2023/07/22 09:55:15;;;;;;;7.18;4.25;;;;;;;;;;5104727;27;20048;-64
2023/07/22 09:57:45;;;;;;;10.55;4.05;;;;;;;;;;5103046;27;20066;-64
2023/07/22 10:00:12;;;;;;;4.93;3.97;;;;;;;;;;5109141;27;20059;-62
2023/07/22 10:02:39;;;;;;;8.52;4.00;;;;;;;;;;5125028;27;20144;-64
2023/07/22 10:05:07;;;;;;;7.05;3.53;;;;;;;;;;5124670;27;20501;-63
2023/07/22 10:07:35;;;;;;;5.13;3.45;;;;;;;;;;5117135;27;20052;-63
2023/07/22 10:10:04;;;;;;;5.63;3.75;;;;;;;;;;5114193;27;20118;-62
2023/07/22 10:12:30;;;;;;;5.93;3.33;;;;;;;;;;5118881;27;20058;-62
2023/07/22 10:14:57;;;;;;;7.68;4.93;;;;;;;;;;5083742;28;20053;-64
2023/07/22 10:17:24;;;;;;;10.20;4.07;;;;;;;;;;5092330;28;20058;-63
2023/07/22 10:19:52;;;;;;;6.07;3.75;;;;;;;;;;5108937;27;20490;-64
2023/07/22 10:22:18;;;;;;;7.30;5.85;;;;;;;;;;5084480;28;20060;-64
2023/07/22 10:24:46;;;;;;;7.93;4.50;;;;;;;;;;5085317;27;20118;-63
2023/07/22 10:27:13;;;;;;;9.02;4.18;;;;;;;;;;5104526;27;20052;-61
2023/07/22 10:29:40;;;;;;;8.20;3.28;;;;;;;;;;5125029;27;20066;-62
2023/07/22 10:32:07;;;;;;;5.68;3.20;;;;;;;;;;5124429;27;20054;-63
2023/07/22 10:34:33;;;;;;;6.45;3.50;;;;;;;;;;5125138;27;20090;-60
2023/07/22 10:37:00;;;;;;;6.28;3.92;;;;;;;;;;5124543;27;20402;-65
2023/07/22 10:39:27;;;;;;;6.75;3.28;;;;;;;;;;5107817;27;20063;-39
2023/07/22 10:42:00;;;;;;;7.15;3.70;;;;;;;;;;5104187;28;20484;-61
2023/07/22 10:44:27;;;;;;;6.47;3.53;;;;;;;;;;5105773;27;20044;-62
2023/07/22 10:46:56;;;;;;;5.45;3.40;;;;;;;;;;5100508;27;20526;-62
2023/07/22 10:49:23;;;;;;;8.68;4.25;;;;;;;;;;5093269;27;20144;-63
2023/07/22 10:51:52;;;;;;;7.72;3.78;;;;;;;;;;5088148;27;20102;-61
2023/07/22 10:54:33;;;;;;;7.10;3.03;;;;;;;;;;5106348;27;20576;-61
2023/07/22 10:57:06;;;;;;;7.60;3.53;;;;;;;;;;5091053;27;20523;-64
2023/07/22 10:59:36;;;;;;;5.20;3.72;;;;;;;;;;5102174;27;20059;-63
2023/07/22 11:02:07;;;;;;;8.10;4.07;;;;;;;;;;5096456;27;20564;-62
2023/07/22 11:04:35;;;;;;;6.93;4.22;;;;;;;;;;5093702;27;20492;-59
2023/07/22 11:07:33;;;;;;;7.90;3.63;;;;;;;;;;5090542;27;20517;-63
2023/07/22 11:10:17;;;;;;;7.15;4.13;;;;;;;;;;5100260;27;20055;-64
2023/07/22 11:12:45;;;;;;;7.38;3.65;;;;;;;;;;5105502;27;20066;-59
2023/07/22 11:15:14;;;;;;;6.70;3.88;;;;;;;;;;5101518;27;20048;-62
2023/07/22 11:17:40;;;;;;;4.90;4.00;;;;;;;;;;5091811;27;20052;-60
2023/07/22 11:20:07;;;;;;;4.32;3.80;;;;;;;;;;5103219;27;20056;-63
2023/07/22 11:22:33;;;;;;;8.95;3.97;;;;;;;;;;5103034;27;20590;-62
2023/07/22 11:25:00;;;;;;;6.30;3.92;;;;;;;;;;5102714;27;20048;-63
2023/07/22 11:27:26;;;;;;;6.72;3.97;;;;;;;;;;5126144;27;20696;-65
2023/07/22 11:29:53;;;;;;;7.65;5.32;;;;;;;;;;5093940;27;20171;-66
2023/07/22 11:32:24;;;;;;;4.47;3.10;;;;;;;;;;5099465;27;20056;-63
2023/07/22 11:34:53;;;;;;;4.82;2.97;;;;;;;;;;5092255;27;20056;-62
2023/07/22 11:37:20;;;;;;;7.45;3.50;;;;;;;;;;5100094;27;20463;-64
2023/07/22 11:39:46;;;;;;;5.78;3.78;;;;;;;;;;5088378;27;20057;-66
2023/07/22 11:42:13;;;;;;;8.40;3.45;;;;;;;;;;5094472;27;20056;-69
2023/07/22 11:44:40;;;;;;;6.70;4.20;;;;;;;;;;5096265;27;20575;-67
2023/07/22 11:47:07;;;;;;;7.60;3.50;;;;;;;;;;5117012;27;20512;-69
2023/07/22 11:49:35;;;;;;;5.28;3.65;;;;;;;;;;5121413;27;20075;-69
2023/07/22 11:52:09;;;;;;;5.75;3.30;;;;;;;;;;5102831;27;20052;-66
2023/07/22 11:54:37;;;;;;;5.07;3.60;;;;;;;;;;5098467;28;20229;-65
2023/07/22 11:57:14;;;;;;;5.78;3.55;;;;;;;;;;5102329;27;20132;-69
2023/07/22 11:59:45;;;;;;;5.65;3.13;;;;;;;;;;5105412;27;20066;-68
2023/07/22 12:02:16;;;;;;;5.63;3.30;;;;;;;;;;5105141;27;20083;-67
2023/07/22 12:04:43;;;;;;;5.78;3.67;;;;;;;;;;5094169;27;20060;-66
2023/07/22 12:07:23;;;;;;;8.18;3.58;;;;;;;;;;5103153;27;20083;-61
2023/07/22 12:09:50;;;;;;;8.20;3.78;;;;;;;;;;5094979;28;20526;-65
2023/07/22 12:12:17;;;;;;;13.20;5.22;;;;;;;;;;5104752;27;20080;-62
2023/07/22 12:14:43;;;;;;;8.25;4.18;;;;;;;;;;5100639;27;20060;-65
2023/07/22 12:17:09;;;;;;;8.25;4.38;;;;;;;;;;5098178;27;20052;-63
2023/07/22 12:19:36;;;;;;;7.60;4.13;;;;;;;;;;5102296;27;20107;-62
2023/07/22 12:22:02;;;;;;;7.10;4.55;;;;;;;;;;5105249;27;20048;-61
2023/07/22 12:24:29;;;;;;;6.10;3.92;;;;;;;;;;5103423;27;20056;-68
2023/07/22 12:26:56;;;;;;;7.72;4.25;;;;;;;;;;5101123;27;20060;-69
2023/07/22 12:29:22;;;;;;;8.80;4.20;;;;;;;;;;5107107;27;20498;-67
2023/07/22 12:31:49;;;;;;;7.50;4.13;;;;;;;;;;5104154;27;20052;-70
2023/07/22 12:34:15;;;;;;;8.70;4.40;;;;;;;;;;5102901;27;20201;-72
2023/07/22 12:36:42;;;;;;;9.18;3.95;;;;;;;;;;5105111;27;20109;-67
2023/07/22 12:39:08;;;;;;;6.22;3.67;;;;;;;;;;5103827;28;20591;-70
2023/07/22 12:41:35;;;;;;;8.93;4.43;;;;;;;;;;5104120;28;20502;-71
2023/07/22 12:44:01;;;;;;;8.30;4.25;;;;;;;;;;5100062;27;20055;-70
2023/07/22 12:46:27;;;;;;;6.30;4.43;;;;;;;;;;5105453;27;20048;-64
2023/07/22 12:48:54;;;;;;;7.22;4.05;;;;;;;;;;5104968;27;20052;-68
2023/07/22 12:51:20;;;;;;;7.70;4.88;;;;;;;;;;5101239;27;20113;-66
2023/07/22 12:53:47;;;;;;;6.57;4.13;;;;;;;;;;5101275;28;20056;-67
2023/07/22 12:56:13;;;;;;;6.10;4.93;;;;;;;;;;5104217;28;20056;-67
2023/07/22 12:58:40;;;;;;;8.20;5.00;;;;;;;;;;5105042;28;20351;-67
2023/07/22 13:01:07;;;;;;;9.45;5.50;;;;;;;;;;5104114;27;20513;-65
2023/07/22 13:03:34;;;;;;;6.80;5.63;;;;;;;;;;5104826;27;20060;-65
2023/07/22 13:06:00;;;;;;;8.48;5.57;;;;;;;;;;5104868;28;20179;-69
2023/07/22 13:08:27;;;;;;;12.25;7.57;;;;;;;;;;5103466;27;20185;-70
2023/07/22 13:10:54;;;;;;;9.95;5.40;;;;;;;;;;5096542;27;20530;-68
2023/07/22 13:13:20;;;;;;;10.55;5.35;;;;;;;;;;5097789;27;20145;-63
2023/07/22 13:15:47;;;;;;;9.77;4.90;;;;;;;;;;5104051;28;20515;-71
2023/07/22 13:18:13;;;;;;;12.15;5.03;;;;;;;;;;5103058;27;20064;-68
2023/07/22 13:20:40;;;;;;;12.07;5.45;;;;;;;;;;5103994;27;20052;-67
2023/07/22 13:23:07;;;;;;;7.78;4.90;;;;;;;;;;5103048;27;20059;-63
2023/07/22 13:25:33;;;;;;;6.28;4.97;;;;;;;;;;5097736;27;20106;-70
2023/07/22 13:28:00;;;;;;;13.52;5.13;;;;;;;;;;5104365;28;20079;-69
2023/07/22 13:30:26;;;;;;;12.13;5.70;;;;;;;;;;5096809;28;20540;-66
2023/07/22 13:32:53;;;;;;;9.48;4.78;;;;;;;;;;5104046;28;20158;-69
2023/07/22 13:35:19;;;;;;;8.05;4.40;;;;;;;;;;5101689;27;20059;-72
2023/07/22 13:37:46;;;;;;;5.60;3.80;;;;;;;;;;5097891;27;20056;-66
2023/07/22 13:40:13;;;;;;;7.53;4.03;;;;;;;;;;5097408;28;20060;-64
2023/07/22 13:42:39;;;;;;;6.03;4.05;;;;;;;;;;5097380;27;20076;-66
2023/07/22 13:45:06;;;;;;;8.48;4.72;;;;;;;;;;5094134;28;20105;-69
2023/07/22 13:47:33;;;;;;;8.13;4.88;;;;;;;;;;5093933;27;20049;-66
2023/07/22 13:49:59;;;;;;;6.75;5.03;;;;;;;;;;5102513;27;20043;-67
2023/07/22 13:52:26;;;;;;;10.32;4.18;;;;;;;;;;5097029;27;20106;-71
2023/07/22 13:54:52;;;;;;;6.80;3.65;;;;;;;;;;5100933;27;20121;-68
2023/07/22 13:57:18;;;;;;;11.90;3.92;;;;;;;;;;5103357;27;20052;-67
2023/07/22 13:59:45;;;;;;;5.80;2.88;;;;;;;;;;5094513;27;20134;-67
2023/07/22 14:02:11;;;;;;;6.55;3.45;;;;;;;;;;5096864;27;20528;-71
2023/07/22 14:04:38;;;;;;;3.85;3.40;;;;;;;;;;5092934;27;20174;-64
2023/07/22 14:07:04;;;;;;;6.35;2.65;;;;;;;;;;5103103;27;20052;-65
2023/07/22 14:09:31;;;;;;;5.68;2.47;;;;;;;;;;5093025;27;20058;-70
2023/07/22 14:11:57;;;;;;;5.53;2.85;;;;;;;;;;5088839;27;20057;-70
2023/07/22 14:14:28;;;;;;;2.70;2.40;;;;;;;;;;5091221;27;20056;-68
2023/07/22 14:16:56;;;;;;;4.20;2.58;;;;;;;;;;5102452;27;20052;-71
2023/07/22 14:19:23;;;;;;;3.42;2.33;;;;;;;;;;5093771;27;20076;-69
2023/07/22 14:21:50;;;;;;;2.30;2.10;;;;;;;;;;5098741;27;20050;-65
2023/07/22 14:24:17;;;;;;;9.45;2.50;;;;;;;;;;5097509;27;20097;-66
2023/07/22 14:26:43;;;;;;;6.07;2.60;;;;;;;;;;5094956;27;20099;-70
2023/07/22 14:29:10;;;;;;;4.70;2.50;;;;;;;;;;5075090;28;20070;-68